Accueil
METAR-TAF:

METAR-TAF

Aéroports :

Aéroport Franz-Josef-Strauß de Munich

Munich, Allemagne

latitude: 48-21N, longitude: 011-47E, altitude: 453 m

Observation

Le bulletin a été fait il y a 15 minutes, à 00:20 UTC
Vent 1 kt de direction variable
Température 7°C
Humidité 93%
Pression 1032 hPa
Visibilité 10 km ou plus
pas de nuages en-dessous de 1500 mètres et pas de cumulonimbus.

METAR: EDDM 260020Z VRB01KT CAVOK 07/06 Q1032 NOSIG

Heure: 02:35 (00:35 UTC)

Prévision

Le bulletin a été fait il y a 1 heure et 35 minutes, à 23:00 UTC
Prévision valable du 26 à 00 UTC au 27 à 06 UTC
Vent 3 kt de direction variable
Visibilité 10 km ou plus
Quelques nuages à une hauteur de 4000 ft
Evoluant progressivement
du 26 à 07 UTC au 26 à 09 UTC
Vent 6 kt de nord/nord-est
Evoluant progressivement
du 26 à 18 UTC au 26 à 20 UTC
Vent 2 kt de direction variable

TAF: EDDM 252300Z 2600/2706 VRB03KT 9999 FEW040 BECMG 2607/2609 02006KT BECMG 2618/2620 VRB02KT

Observations et prévisions météorologiques de plus de 4000 aéroports (messages METAR et TAF).

Les stations disponibles sont représentées par des disques jaunes et rouges sur la carte.

Passer la souris dessus pour voir le nom de la station.

Cliquer dessus pour voir les observations et prévisions météorologiques.

Pour changer de carte: cliquez sur les boutons verts avec une croix noire pour zoomer, sur le bouton vert avec un tiret pour effectuer un zoom arrière, ou sur les flèches vertes pour les cartes adjacentes.


METAR-TAF: